• Join FlightAware (Why Join?)
  • Login
  • US Flag 
03:44AM EDT


 

Airport Tracker/Info


-or-


 

Live Flight TrackerFlight Track Log ✈ N244A ✈ 28-Oct-2013 ✈ KHVN - KTEB

Flight Track Log - Related Links

Times and Time Zones

All times are in EDT time to prevent confusion due to time zone crossing. See the N244A flight status page for this flight to view local times or setup timezone preferences in your user account.

Time Position Orientation Groundspeed Altitude Reporting Facility
EDT Latitude Longitude Course Direction KTS MPH feet Rate Location/Type
02:16PM 41.1667 -72.9000 270° West 244 281 3,100  Level New York TRACON
02:17PM 41.1667 -72.9667 270° West 240 276 5,700 1,500 Climbing New York TRACON
02:18PM 41.2167 -73.0333 315° West 235 270 6,200 240 Climbing New York TRACON
02:19PM 41.2500 -73.0833 312° West 239 275 6,200  Level New York TRACON
02:20PM 41.2667 -73.1833 283° West 244 281 6,200 -60 Level New York TRACON
02:21PM 41.2667 -73.2667 270° West 248 285 6,100 -60 Descending New York TRACON
02:22PM 41.2667 -73.3667 270° West 237 273 6,100  Level New York TRACON
02:23PM 41.2833 -73.4500 285° West 236 272 6,200  Climbing New York TRACON
02:24PM 41.2833 -73.5333 270° West 234 269 6,200 -60 Level New York TRACON
02:25PM 41.2833 -73.6167 270° West 238 274 6,100  Descending New York TRACON
02:26PM 41.2667 -73.7000 255° West 234 269 6,200  Climbing New York TRACON
02:27PM 41.2667 -73.8000 270° West 235 270 6,200 -480 Level New York TRACON
02:28PM 41.2500 -73.8833 255° West 231 266 5,300 -900 Descending New York TRACON
02:29PM 41.2500 -73.9667 270° West 234 269 4,400 -600 Descending New York TRACON
02:30PM 41.2333 -74.0500 255° West 227 261 4,100 -240 Descending New York TRACON
02:31PM 41.1667 -74.0833 201° Southwest 246 283 4,000 -660 Descending New York TRACON
02:32PM 41.1000 -74.0833 180° South 237 273 2,800 -900 Descending New York TRACON
02:33PM 41.0500 -74.0667 166° South 187 215 2,200 -300 Descending New York TRACON
02:34PM 41.0000 -74.0667 180° South 174 200 2,200 -360 Level New York TRACON
02:35PM 40.9667 -74.0500 159° South 152 175 1,500 -540 Descending New York TRACON
02:36PM 40.9167 -74.0500 180° South 149 171 1,200 -420 Descending New York TRACON
02:37PM 40.8833 -74.0500 180° South 125 144 700 -540 Descending New York TRACON
02:39PM 40.8500 -74.0500 114° Southeast  Level FlightAware Approximate
02:46PM 40.8501 -74.0608 114° Southeast  Level Estimated
02:47PM 40.8501 -74.0608 114° Southeast  Level Estimated